sensor_id;sensor_type;location;lat;lon;timestamp;temperature;humidity
10312;DHT22;5201;48.776;9.128;2022-08-04T00:02:09;25.40;86.30
10312;DHT22;5201;48.776;9.128;2022-08-04T00:04:44;25.40;87.00
10312;DHT22;5201;48.776;9.128;2022-08-04T00:07:18;25.40;86.10
10312;DHT22;5201;48.776;9.128;2022-08-04T00:09:54;25.40;86.40
10312;DHT22;5201;48.776;9.128;2022-08-04T00:12:24;25.40;86.30
10312;DHT22;5201;48.776;9.128;2022-08-04T00:14:57;25.30;86.90
10312;DHT22;5201;48.776;9.128;2022-08-04T00:17:27;25.30;86.50
10312;DHT22;5201;48.776;9.128;2022-08-04T00:20:00;25.30;86.80
10312;DHT22;5201;48.776;9.128;2022-08-04T00:22:28;25.30;87.00
10312;DHT22;5201;48.776;9.128;2022-08-04T00:24:55;25.20;87.70
10312;DHT22;5201;48.776;9.128;2022-08-04T00:27:21;25.20;87.50
10312;DHT22;5201;48.776;9.128;2022-08-04T00:29:48;25.20;87.40
10312;DHT22;5201;48.776;9.128;2022-08-04T00:32:13;25.10;88.30
10312;DHT22;5201;48.776;9.128;2022-08-04T00:34:42;25.10;88.10
10312;DHT22;5201;48.776;9.128;2022-08-04T00:37:09;25.10;86.70
10312;DHT22;5201;48.776;9.128;2022-08-04T00:39:35;25.00;87.70
10312;DHT22;5201;48.776;9.128;2022-08-04T00:42:16;25.00;86.90
10312;DHT22;5201;48.776;9.128;2022-08-04T00:50:44;24.90;87.70
10312;DHT22;5201;48.776;9.128;2022-08-04T00:53:23;24.90;88.80
10312;DHT22;5201;48.776;9.128;2022-08-04T00:58:42;24.70;86.20
10312;DHT22;5201;48.776;9.128;2022-08-04T01:04:44;24.80;86.70
10312;DHT22;5201;48.776;9.128;2022-08-04T01:20:31;24.70;88.60
10312;DHT22;5201;48.776;9.128;2022-08-04T01:32:13;24.60;89.40
10312;DHT22;5201;48.776;9.128;2022-08-04T01:34:43;24.50;89.90
10312;DHT22;5201;48.776;9.128;2022-08-04T01:37:55;24.50;90.00
10312;DHT22;5201;48.776;9.128;2022-08-04T01:40:13;24.50;89.80
10312;DHT22;5201;48.776;9.128;2022-08-04T01:42:41;24.50;89.60
10312;DHT22;5201;48.776;9.128;2022-08-04T01:45:10;25.90;90.60
10312;DHT22;5201;48.776;9.128;2022-08-04T01:47:39;24.50;89.80
10312;DHT22;5201;48.776;9.128;2022-08-04T01:50:08;24.40;89.60
10312;DHT22;5201;48.776;9.128;2022-08-04T01:52:35;24.40;88.80
10312;DHT22;5201;48.776;9.128;2022-08-04T01:55:09;24.40;86.30
10312;DHT22;5201;48.776;9.128;2022-08-04T01:57:50;24.40;88.00
10312;DHT22;5201;48.776;9.128;2022-08-04T02:00:24;24.40;88.20
10312;DHT22;5201;48.776;9.128;2022-08-04T02:02:52;24.30;89.00
10312;DHT22;5201;48.776;9.128;2022-08-04T02:05:19;24.10;89.50
10312;DHT22;5201;48.776;9.128;2022-08-04T02:08:20;24.20;90.40
10312;DHT22;5201;48.776;9.128;2022-08-04T02:11:14;24.10;90.30
10312;DHT22;5201;48.776;9.128;2022-08-04T02:13:53;24.10;90.60
10312;DHT22;5201;48.776;9.128;2022-08-04T02:16:43;24.00;90.80
10312;DHT22;5201;48.776;9.128;2022-08-04T02:19:29;24.00;90.20
10312;DHT22;5201;48.776;9.128;2022-08-04T02:22:05;24.00;89.60
10312;DHT22;5201;48.776;9.128;2022-08-04T02:24:32;24.00;89.50
10312;DHT22;5201;48.776;9.128;2022-08-04T02:27:00;24.00;89.50
10312;DHT22;5201;48.776;9.128;2022-08-04T02:29:39;24.00;89.70
10312;DHT22;5201;48.776;9.128;2022-08-04T02:32:14;24.00;89.60
10312;DHT22;5201;48.776;9.128;2022-08-04T02:35:10;24.00;90.30
10312;DHT22;5201;48.776;9.128;2022-08-04T02:37:33;23.90;91.10
10312;DHT22;5201;48.776;9.128;2022-08-04T02:40:05;23.80;91.00
10312;DHT22;5201;48.776;9.128;2022-08-04T02:42:32;23.80;90.30
10312;DHT22;5201;48.776;9.128;2022-08-04T02:44:59;23.80;90.30
10312;DHT22;5201;48.776;9.128;2022-08-04T02:47:27;23.80;90.40
10312;DHT22;5201;48.776;9.128;2022-08-04T02:49:53;23.80;90.10
10312;DHT22;5201;48.776;9.128;2022-08-04T02:52:22;23.80;89.70
10312;DHT22;5201;48.776;9.128;2022-08-04T02:54:52;23.80;89.60
10312;DHT22;5201;48.776;9.128;2022-08-04T02:57:22;23.70;90.20
10312;DHT22;5201;48.776;9.128;2022-08-04T03:00:10;23.60;90.40
10312;DHT22;5201;48.776;9.128;2022-08-04T03:02:53;23.50;91.00
10312;DHT22;5201;48.776;9.128;2022-08-04T03:11:15;23.50;89.30
10312;DHT22;5201;48.776;9.128;2022-08-04T03:22:57;23.40;90.50
10312;DHT22;5201;48.776;9.128;2022-08-04T03:34:53;23.50;90.10
10312;DHT22;5201;48.776;9.128;2022-08-04T03:48:57;23.40;90.70
10312;DHT22;5201;48.776;9.128;2022-08-04T04:00:19;23.40;90.90
10312;DHT22;5201;48.776;9.128;2022-08-04T04:03:10;23.30;90.80
10312;DHT22;5201;48.776;9.128;2022-08-04T04:08:37;23.30;91.10
10312;DHT22;5201;48.776;9.128;2022-08-04T04:20:32;23.00;89.20
10312;DHT22;5201;48.776;9.128;2022-08-04T04:28:54;23.20;91.30
10312;DHT22;5201;48.776;9.128;2022-08-04T04:34:56;23.20;91.50
10312;DHT22;5201;48.776;9.128;2022-08-04T04:43:36;23.20;92.30
10312;DHT22;5201;48.776;9.128;2022-08-04T04:46:32;23.30;91.90
10312;DHT22;5201;48.776;9.128;2022-08-04T04:49:21;23.30;92.10
10312;DHT22;5201;48.776;9.128;2022-08-04T04:51:51;23.40;90.60
10312;DHT22;5201;48.776;9.128;2022-08-04T04:54:42;23.40;90.30
10312;DHT22;5201;48.776;9.128;2022-08-04T04:57:16;23.40;90.20
10312;DHT22;5201;48.776;9.128;2022-08-04T04:59:57;23.50;91.60
10312;DHT22;5201;48.776;9.128;2022-08-04T05:13:52;23.60;89.60
10312;DHT22;5201;48.776;9.128;2022-08-04T05:16:20;23.80;89.80
10312;DHT22;5201;48.776;9.128;2022-08-04T05:18:58;23.90;90.10
10312;DHT22;5201;48.776;9.128;2022-08-04T05:21:46;24.00;90.30
10312;DHT22;5201;48.776;9.128;2022-08-04T05:24:17;24.10;91.10
10312;DHT22;5201;48.776;9.128;2022-08-04T05:26:45;24.10;91.30
10312;DHT22;5201;48.776;9.128;2022-08-04T05:29:22;24.20;91.40
10312;DHT22;5201;48.776;9.128;2022-08-04T05:31:51;24.20;91.00
10312;DHT22;5201;48.776;9.128;2022-08-04T05:34:25;24.30;91.10
10312;DHT22;5201;48.776;9.128;2022-08-04T05:36:54;24.30;90.60
10312;DHT22;5201;48.776;9.128;2022-08-04T05:39:24;24.50;90.60
10312;DHT22;5201;48.776;9.128;2022-08-04T05:41:51;24.50;90.50
10312;DHT22;5201;48.776;9.128;2022-08-04T05:44:19;24.60;90.20
10312;DHT22;5201;48.776;9.128;2022-08-04T05:46:47;24.70;90.70
10312;DHT22;5201;48.776;9.128;2022-08-04T05:49:15;24.70;91.00
10312;DHT22;5201;48.776;9.128;2022-08-04T05:51:42;24.70;90.70
10312;DHT22;5201;48.776;9.128;2022-08-04T05:54:09;24.80;90.90
10312;DHT22;5201;48.776;9.128;2022-08-04T05:56:35;24.80;90.20
10312;DHT22;5201;48.776;9.128;2022-08-04T05:59:03;24.90;90.10
10312;DHT22;5201;48.776;9.128;2022-08-04T06:01:30;25.00;89.00
10312;DHT22;5201;48.776;9.128;2022-08-04T06:03:58;25.00;89.20
10312;DHT22;5201;48.776;9.128;2022-08-04T06:06:24;25.20;88.50
10312;DHT22;5201;48.776;9.128;2022-08-04T06:08:51;25.40;88.50
10312;DHT22;5201;48.776;9.128;2022-08-04T06:11:18;25.40;87.70
10312;DHT22;5201;48.776;9.128;2022-08-04T06:13:57;25.50;88.30
10312;DHT22;5201;48.776;9.128;2022-08-04T06:16:25;25.70;87.10
10312;DHT22;5201;48.776;9.128;2022-08-04T06:18:53;25.90;86.90
10312;DHT22;5201;48.776;9.128;2022-08-04T06:21:23;26.10;87.20
10312;DHT22;5201;48.776;9.128;2022-08-04T06:23:52;26.60;87.00
10312;DHT22;5201;48.776;9.128;2022-08-04T06:26:20;27.00;86.40
10312;DHT22;5201;48.776;9.128;2022-08-04T06:28:49;27.40;83.50
10312;DHT22;5201;48.776;9.128;2022-08-04T06:31:18;27.80;84.50
10312;DHT22;5201;48.776;9.128;2022-08-04T06:34:24;28.20;81.40
10312;DHT22;5201;48.776;9.128;2022-08-04T06:36:50;28.50;80.70
10312;DHT22;5201;48.776;9.128;2022-08-04T06:39:17;28.80;81.00
10312;DHT22;5201;48.776;9.128;2022-08-04T06:41:43;29.20;82.40
10312;DHT22;5201;48.776;9.128;2022-08-04T06:44:10;29.50;79.30
10312;DHT22;5201;48.776;9.128;2022-08-04T06:46:39;29.60;77.20
10312;DHT22;5201;48.776;9.128;2022-08-04T06:49:06;29.70;76.70
10312;DHT22;5201;48.776;9.128;2022-08-04T06:51:36;29.90;77.20
10312;DHT22;5201;48.776;9.128;2022-08-04T06:54:04;30.20;76.70
10312;DHT22;5201;48.776;9.128;2022-08-04T06:56:30;30.50;77.30
10312;DHT22;5201;48.776;9.128;2022-08-04T06:58:58;31.00;78.60
10312;DHT22;5201;48.776;9.128;2022-08-04T07:01:25;31.20;74.00
10312;DHT22;5201;48.776;9.128;2022-08-04T07:03:52;31.60;74.80
10312;DHT22;5201;48.776;9.128;2022-08-04T07:06:20;31.80;72.00
10312;DHT22;5201;48.776;9.128;2022-08-04T07:08:47;32.00;71.10
10312;DHT22;5201;48.776;9.128;2022-08-04T07:11:13;32.40;76.10
10312;DHT22;5201;48.776;9.128;2022-08-04T07:13:39;32.80;69.80
10312;DHT22;5201;48.776;9.128;2022-08-04T07:16:06;33.00;72.70
10312;DHT22;5201;48.776;9.128;2022-08-04T07:18:32;33.40;68.80
10312;DHT22;5201;48.776;9.128;2022-08-04T07:20:58;33.60;67.50
10312;DHT22;5201;48.776;9.128;2022-08-04T07:23:25;33.90;67.50
10312;DHT22;5201;48.776;9.128;2022-08-04T07:25:54;34.10;68.10
10312;DHT22;5201;48.776;9.128;2022-08-04T07:28:21;34.20;67.20
10312;DHT22;5201;48.776;9.128;2022-08-04T07:30:48;34.10;68.00
10312;DHT22;5201;48.776;9.128;2022-08-04T07:33:15;34.20;68.90
10312;DHT22;5201;48.776;9.128;2022-08-04T07:35:42;34.30;66.60
10312;DHT22;5201;48.776;9.128;2022-08-04T07:38:07;34.30;65.80
10312;DHT22;5201;48.776;9.128;2022-08-04T07:40:36;34.70;66.00
10312;DHT22;5201;48.776;9.128;2022-08-04T07:43:02;34.60;64.80
10312;DHT22;5201;48.776;9.128;2022-08-04T07:45:28;34.90;68.00
10312;DHT22;5201;48.776;9.128;2022-08-04T07:47:53;34.90;65.00
10312;DHT22;5201;48.776;9.128;2022-08-04T07:50:19;34.70;65.20
10312;DHT22;5201;48.776;9.128;2022-08-04T07:52:45;35.00;66.50
10312;DHT22;5201;48.776;9.128;2022-08-04T07:55:12;35.30;64.50
10312;DHT22;5201;48.776;9.128;2022-08-04T07:57:38;35.50;64.90
10312;DHT22;5201;48.776;9.128;2022-08-04T08:00:05;35.80;63.60
10312;DHT22;5201;48.776;9.128;2022-08-04T08:02:32;35.90;65.20
10312;DHT22;5201;48.776;9.128;2022-08-04T08:04:59;36.20;62.80
10312;DHT22;5201;48.776;9.128;2022-08-04T08:07:25;35.90;63.30
10312;DHT22;5201;48.776;9.128;2022-08-04T08:09:51;35.90;62.20
10312;DHT22;5201;48.776;9.128;2022-08-04T08:12:17;35.80;65.70
10312;DHT22;5201;48.776;9.128;2022-08-04T08:14:43;35.90;63.80
10312;DHT22;5201;48.776;9.128;2022-08-04T08:17:09;35.90;62.00
10312;DHT22;5201;48.776;9.128;2022-08-04T08:19:35;35.40;62.40
10312;DHT22;5201;48.776;9.128;2022-08-04T08:22:01;35.20;63.50
10312;DHT22;5201;48.776;9.128;2022-08-04T08:24:34;35.40;64.30
10312;DHT22;5201;48.776;9.128;2022-08-04T08:27:01;35.40;62.90
10312;DHT22;5201;48.776;9.128;2022-08-04T08:29:33;35.50;63.00
10312;DHT22;5201;48.776;9.128;2022-08-04T08:32:00;35.30;63.10
10312;DHT22;5201;48.776;9.128;2022-08-04T08:34:30;35.60;62.90
10312;DHT22;5201;48.776;9.128;2022-08-04T08:37:08;35.90;62.70
10312;DHT22;5201;48.776;9.128;2022-08-04T08:40:28;36.20;62.90
10312;DHT22;5201;48.776;9.128;2022-08-04T08:43:07;36.60;62.50
10312;DHT22;5201;48.776;9.128;2022-08-04T08:56:46;37.30;60.80
10312;DHT22;5201;48.776;9.128;2022-08-04T09:12:58;38.50;58.60
10312;DHT22;5201;48.776;9.128;2022-08-04T09:21:16;39.30;57.30
10312;DHT22;5201;48.776;9.128;2022-08-04T09:24:05;39.20;57.50
10312;DHT22;5201;48.776;9.128;2022-08-04T09:26:45;39.30;57.60
10312;DHT22;5201;48.776;9.128;2022-08-04T09:32:19;39.50;59.40
10312;DHT22;5201;48.776;9.128;2022-08-04T09:37:39;39.60;55.90
10312;DHT22;5201;48.776;9.128;2022-08-04T09:40:25;39.30;56.90
10312;DHT22;5201;48.776;9.128;2022-08-04T09:43:15;38.80;56.60
10312;DHT22;5201;48.776;9.128;2022-08-04T09:51:55;38.80;55.60
10312;DHT22;5201;48.776;9.128;2022-08-04T10:00:00;39.00;56.10
10312;DHT22;5201;48.776;9.128;2022-08-04T10:02:38;39.30;54.20
10312;DHT22;5201;48.776;9.128;2022-08-04T10:05:12;39.10;55.20
10312;DHT22;5201;48.776;9.128;2022-08-04T10:16:12;38.80;55.70
10312;DHT22;5201;48.776;9.128;2022-08-04T10:27:54;38.80;54.60
10312;DHT22;5201;48.776;9.128;2022-08-04T10:30:22;38.50;55.50
10312;DHT22;5201;48.776;9.128;2022-08-04T10:33:03;38.60;56.80
10312;DHT22;5201;48.776;9.128;2022-08-04T10:35:56;38.60;55.80
10312;DHT22;5201;48.776;9.128;2022-08-04T10:38:55;38.30;57.80
10312;DHT22;5201;48.776;9.128;2022-08-04T10:41:42;38.30;55.50
10312;DHT22;5201;48.776;9.128;2022-08-04T10:44:21;38.20;57.00
10312;DHT22;5201;48.776;9.128;2022-08-04T10:46:55;38.60;54.70
10312;DHT22;5201;48.776;9.128;2022-08-04T10:49:50;38.30;55.30
10312;DHT22;5201;48.776;9.128;2022-08-04T10:52:26;38.00;56.50
10312;DHT22;5201;48.776;9.128;2022-08-04T10:55:10;37.60;55.70
10312;DHT22;5201;48.776;9.128;2022-08-04T10:57:51;37.60;55.80
10312;DHT22;5201;48.776;9.128;2022-08-04T11:00:22;37.80;56.00
10312;DHT22;5201;48.776;9.128;2022-08-04T11:03:12;37.90;56.90
10312;DHT22;5201;48.776;9.128;2022-08-04T11:08:20;38.60;56.30
10312;DHT22;5201;48.776;9.128;2022-08-04T11:10:54;38.70;54.90
10312;DHT22;5201;48.776;9.128;2022-08-04T11:13:24;38.60;55.90
10312;DHT22;5201;48.776;9.128;2022-08-04T11:15:54;37.90;56.60
10312;DHT22;5201;48.776;9.128;2022-08-04T11:18:57;37.50;55.90
10312;DHT22;5201;48.776;9.128;2022-08-04T11:21:33;37.00;56.60
10312;DHT22;5201;48.776;9.128;2022-08-04T11:24:10;37.00;57.70
10312;DHT22;5201;48.776;9.128;2022-08-04T11:26:55;37.30;57.00
10312;DHT22;5201;48.776;9.128;2022-08-04T11:32:12;37.40;56.90
10312;DHT22;5201;48.776;9.128;2022-08-04T11:34:42;37.30;57.00
10312;DHT22;5201;48.776;9.128;2022-08-04T11:37:20;37.20;57.90
10312;DHT22;5201;48.776;9.128;2022-08-04T11:39:58;36.70;58.60
10312;DHT22;5201;48.776;9.128;2022-08-04T11:42:35;36.50;58.90
10312;DHT22;5201;48.776;9.128;2022-08-04T11:45:09;36.40;59.80
10312;DHT22;5201;48.776;9.128;2022-08-04T11:47:54;36.40;59.10
10312;DHT22;5201;48.776;9.128;2022-08-04T11:50:31;36.50;59.00
10312;DHT22;5201;48.776;9.128;2022-08-04T11:53:00;36.60;58.70
10312;DHT22;5201;48.776;9.128;2022-08-04T11:55:27;36.70;59.10
10312;DHT22;5201;48.776;9.128;2022-08-04T11:57:54;36.80;58.50
10312;DHT22;5201;48.776;9.128;2022-08-04T12:00:21;36.70;58.00
10312;DHT22;5201;48.776;9.128;2022-08-04T12:03:14;36.60;58.00
10312;DHT22;5201;48.776;9.128;2022-08-04T12:05:57;36.70;57.70
10312;DHT22;5201;48.776;9.128;2022-08-04T12:12:12;36.40;58.20
10312;DHT22;5201;48.776;9.128;2022-08-04T12:14:53;36.40;58.50
10312;DHT22;5201;48.776;9.128;2022-08-04T12:17:42;36.20;58.30
10312;DHT22;5201;48.776;9.128;2022-08-04T12:20:09;36.20;58.30
10312;DHT22;5201;48.776;9.128;2022-08-04T12:22:46;36.00;58.30
10312;DHT22;5201;48.776;9.128;2022-08-04T12:25:29;36.00;59.00
10312;DHT22;5201;48.776;9.128;2022-08-04T12:28:07;36.00;58.10
10312;DHT22;5201;48.776;9.128;2022-08-04T12:30:41;36.00;58.00
10312;DHT22;5201;48.776;9.128;2022-08-04T12:33:19;35.90;58.50
10312;DHT22;5201;48.776;9.128;2022-08-04T12:35:54;35.90;57.00
10312;DHT22;5201;48.776;9.128;2022-08-04T12:38:25;35.60;57.40
10312;DHT22;5201;48.776;9.128;2022-08-04T12:40:57;35.40;57.60
10312;DHT22;5201;48.776;9.128;2022-08-04T12:45:55;35.60;59.50
10312;DHT22;5201;48.776;9.128;2022-08-04T12:48:23;35.60;58.60
10312;DHT22;5201;48.776;9.128;2022-08-04T12:50:51;35.60;57.90
10312;DHT22;5201;48.776;9.128;2022-08-04T12:53:20;35.50;57.40
10312;DHT22;5201;48.776;9.128;2022-08-04T12:55:48;35.40;58.30
10312;DHT22;5201;48.776;9.128;2022-08-04T12:58:17;35.40;57.20
10312;DHT22;5201;48.776;9.128;2022-08-04T13:01:01;35.30;57.70
10312;DHT22;5201;48.776;9.128;2022-08-04T13:03:29;35.30;57.60
10312;DHT22;5201;48.776;9.128;2022-08-04T13:06:01;35.30;58.20
10312;DHT22;5201;48.776;9.128;2022-08-04T13:08:27;35.30;57.50
10312;DHT22;5201;48.776;9.128;2022-08-04T13:10:56;35.40;57.60
10312;DHT22;5201;48.776;9.128;2022-08-04T13:13:25;35.40;57.60
10312;DHT22;5201;48.776;9.128;2022-08-04T13:16:00;35.40;57.50
10312;DHT22;5201;48.776;9.128;2022-08-04T13:18:28;35.30;57.80
10312;DHT22;5201;48.776;9.128;2022-08-04T13:20:56;35.30;58.20
10312;DHT22;5201;48.776;9.128;2022-08-04T13:23:24;35.30;57.30
10312;DHT22;5201;48.776;9.128;2022-08-04T13:25:52;35.00;57.10
10312;DHT22;5201;48.776;9.128;2022-08-04T13:28:22;34.90;57.80
10312;DHT22;5201;48.776;9.128;2022-08-04T13:30:53;35.00;57.80
10312;DHT22;5201;48.776;9.128;2022-08-04T13:33:21;35.00;57.70
10312;DHT22;5201;48.776;9.128;2022-08-04T13:35:48;35.00;57.70
10312;DHT22;5201;48.776;9.128;2022-08-04T13:38:16;35.10;58.10
10312;DHT22;5201;48.776;9.128;2022-08-04T13:40:43;35.10;58.00
10312;DHT22;5201;48.776;9.128;2022-08-04T13:43:24;35.20;58.70
10312;DHT22;5201;48.776;9.128;2022-08-04T13:45:50;35.20;59.40
10312;DHT22;5201;48.776;9.128;2022-08-04T13:48:23;35.10;59.60
10312;DHT22;5201;48.776;9.128;2022-08-04T13:50:48;35.10;59.00
10312;DHT22;5201;48.776;9.128;2022-08-04T13:53:17;35.10;58.30
10312;DHT22;5201;48.776;9.128;2022-08-04T13:55:43;35.10;59.00
10312;DHT22;5201;48.776;9.128;2022-08-04T13:58:17;35.30;57.70
10312;DHT22;5201;48.776;9.128;2022-08-04T14:00:48;35.30;58.40
10312;DHT22;5201;48.776;9.128;2022-08-04T14:03:28;35.40;57.60
10312;DHT22;5201;48.776;9.128;2022-08-04T14:09:16;35.20;56.80
10312;DHT22;5201;48.776;9.128;2022-08-04T14:11:46;34.90;57.40
10312;DHT22;5201;48.776;9.128;2022-08-04T14:14:18;34.70;58.60
10312;DHT22;5201;48.776;9.128;2022-08-04T14:19:47;34.60;58.80
10312;DHT22;5201;48.776;9.128;2022-08-04T14:27:44;34.90;57.90
10312;DHT22;5201;48.776;9.128;2022-08-04T14:35:24;34.80;57.80
10312;DHT22;5201;48.776;9.128;2022-08-04T14:37:58;34.80;58.60
10312;DHT22;5201;48.776;9.128;2022-08-04T14:40:30;34.80;58.90
10312;DHT22;5201;48.776;9.128;2022-08-04T14:42:56;34.80;58.80
10312;DHT22;5201;48.776;9.128;2022-08-04T14:45:39;34.80;59.80
10312;DHT22;5201;48.776;9.128;2022-08-04T14:48:09;34.80;59.40
10312;DHT22;5201;48.776;9.128;2022-08-04T14:50:46;34.90;59.10
10312;DHT22;5201;48.776;9.128;2022-08-04T14:53:18;34.90;59.80
10312;DHT22;5201;48.776;9.128;2022-08-04T14:55:49;34.80;57.60
10312;DHT22;5201;48.776;9.128;2022-08-04T14:58:29;34.80;58.40
10312;DHT22;5201;48.776;9.128;2022-08-04T15:01:00;34.70;57.60
10312;DHT22;5201;48.776;9.128;2022-08-04T15:03:28;34.80;58.60
10312;DHT22;5201;48.776;9.128;2022-08-04T15:05:56;34.90;58.20
10312;DHT22;5201;48.776;9.128;2022-08-04T15:08:22;35.00;58.30
10312;DHT22;5201;48.776;9.128;2022-08-04T15:10:48;35.10;58.30
10312;DHT22;5201;48.776;9.128;2022-08-04T15:13:14;35.10;57.60
10312;DHT22;5201;48.776;9.128;2022-08-04T15:15:41;35.10;57.00
10312;DHT22;5201;48.776;9.128;2022-08-04T15:18:11;35.10;57.80
10312;DHT22;5201;48.776;9.128;2022-08-04T15:20:37;35.10;58.10
10312;DHT22;5201;48.776;9.128;2022-08-04T15:23:04;35.00;58.40
10312;DHT22;5201;48.776;9.128;2022-08-04T15:25:34;35.00;59.00
10312;DHT22;5201;48.776;9.128;2022-08-04T15:28:03;34.90;58.50
10312;DHT22;5201;48.776;9.128;2022-08-04T15:30:30;34.80;58.30
10312;DHT22;5201;48.776;9.128;2022-08-04T15:32:59;34.80;58.70
10312;DHT22;5201;48.776;9.128;2022-08-04T15:35:27;34.70;59.30
10312;DHT22;5201;48.776;9.128;2022-08-04T15:40:38;34.70;58.60
10312;DHT22;5201;48.776;9.128;2022-08-04T15:45:56;34.80;58.90
10312;DHT22;5201;48.776;9.128;2022-08-04T15:48:24;34.80;59.30
10312;DHT22;5201;48.776;9.128;2022-08-04T15:58:54;34.80;58.80
10312;DHT22;5201;48.776;9.128;2022-08-04T16:01:21;34.80;57.30
10312;DHT22;5201;48.776;9.128;2022-08-04T16:03:48;34.70;58.30
10312;DHT22;5201;48.776;9.128;2022-08-04T16:16:27;34.80;58.10
10312;DHT22;5201;48.776;9.128;2022-08-04T16:18:53;34.70;57.10
10312;DHT22;5201;48.776;9.128;2022-08-04T16:21:22;34.70;57.20
10312;DHT22;5201;48.776;9.128;2022-08-04T16:34:41;34.80;57.80
10312;DHT22;5201;48.776;9.128;2022-08-04T16:37:09;34.90;57.60
10312;DHT22;5201;48.776;9.128;2022-08-04T16:39:35;34.90;57.30
10312;DHT22;5201;48.776;9.128;2022-08-04T16:45:18;34.80;57.60
10312;DHT22;5201;48.776;9.128;2022-08-04T16:50:19;34.80;57.70
10312;DHT22;5201;48.776;9.128;2022-08-04T16:52:47;34.80;57.90
10312;DHT22;5201;48.776;9.128;2022-08-04T16:55:22;34.80;57.10
10312;DHT22;5201;48.776;9.128;2022-08-04T16:57:49;34.80;57.50
10312;DHT22;5201;48.776;9.128;2022-08-04T17:00:15;34.80;57.50
10312;DHT22;5201;48.776;9.128;2022-08-04T17:02:44;34.80;57.20
10312;DHT22;5201;48.776;9.128;2022-08-04T17:05:20;34.70;58.20
10312;DHT22;5201;48.776;9.128;2022-08-04T17:07:50;34.60;57.80
10312;DHT22;5201;48.776;9.128;2022-08-04T17:10:16;34.60;58.10
10312;DHT22;5201;48.776;9.128;2022-08-04T17:12:42;34.70;57.80
10312;DHT22;5201;48.776;9.128;2022-08-04T17:15:24;34.70;57.90
10312;DHT22;5201;48.776;9.128;2022-08-04T17:17:50;34.60;57.50
10312;DHT22;5201;48.776;9.128;2022-08-04T17:20:17;34.50;57.70
10312;DHT22;5201;48.776;9.128;2022-08-04T17:22:50;34.40;58.10
10312;DHT22;5201;48.776;9.128;2022-08-04T17:25:15;34.30;57.70
10312;DHT22;5201;48.776;9.128;2022-08-04T17:27:42;34.40;58.30
10312;DHT22;5201;48.776;9.128;2022-08-04T17:30:25;34.50;58.00
10312;DHT22;5201;48.776;9.128;2022-08-04T17:32:51;34.50;57.80
10312;DHT22;5201;48.776;9.128;2022-08-04T17:35:17;34.40;57.90
10312;DHT22;5201;48.776;9.128;2022-08-04T17:37:42;34.40;58.10
10312;DHT22;5201;48.776;9.128;2022-08-04T17:40:10;34.30;58.00
10312;DHT22;5201;48.776;9.128;2022-08-04T17:42:36;34.30;57.90
10312;DHT22;5201;48.776;9.128;2022-08-04T17:45:11;34.20;58.70
10312;DHT22;5201;48.776;9.128;2022-08-04T17:47:53;34.20;58.40
10312;DHT22;5201;48.776;9.128;2022-08-04T17:50:25;34.20;58.70
10312;DHT22;5201;48.776;9.128;2022-08-04T17:53:02;34.20;59.50
10312;DHT22;5201;48.776;9.128;2022-08-04T17:55:45;34.20;58.40
10312;DHT22;5201;48.776;9.128;2022-08-04T17:58:16;34.20;59.40
10312;DHT22;5201;48.776;9.128;2022-08-04T18:00:43;34.10;58.80
10312;DHT22;5201;48.776;9.128;2022-08-04T18:03:21;34.10;58.90
10312;DHT22;5201;48.776;9.128;2022-08-04T18:05:47;34.00;59.70
10312;DHT22;5201;48.776;9.128;2022-08-04T18:08:14;33.90;60.90
10312;DHT22;5201;48.776;9.128;2022-08-04T18:10:42;33.80;59.80
10312;DHT22;5201;48.776;9.128;2022-08-04T18:13:08;33.80;60.90
10312;DHT22;5201;48.776;9.128;2022-08-04T18:15:34;33.70;62.80
10312;DHT22;5201;48.776;9.128;2022-08-04T18:18:17;33.70;62.30
10312;DHT22;5201;48.776;9.128;2022-08-04T18:20:43;33.60;62.90
10312;DHT22;5201;48.776;9.128;2022-08-04T18:23:10;33.50;64.00
10312;DHT22;5201;48.776;9.128;2022-08-04T18:25:36;33.40;64.00
10312;DHT22;5201;48.776;9.128;2022-08-04T18:28:04;33.30;64.80
10312;DHT22;5201;48.776;9.128;2022-08-04T18:30:34;33.20;64.60
10312;DHT22;5201;48.776;9.128;2022-08-04T18:33:00;33.20;65.10
10312;DHT22;5201;48.776;9.128;2022-08-04T18:35:26;33.10;65.90
10312;DHT22;5201;48.776;9.128;2022-08-04T18:37:53;33.00;66.60
10312;DHT22;5201;48.776;9.128;2022-08-04T18:40:19;32.90;67.30
10312;DHT22;5201;48.776;9.128;2022-08-04T18:42:44;32.80;67.40
10312;DHT22;5201;48.776;9.128;2022-08-04T18:45:10;32.70;67.60
10312;DHT22;5201;48.776;9.128;2022-08-04T18:47:38;32.60;67.60
10312;DHT22;5201;48.776;9.128;2022-08-04T18:50:04;32.50;68.20
10312;DHT22;5201;48.776;9.128;2022-08-04T18:52:30;32.50;68.70
10312;DHT22;5201;48.776;9.128;2022-08-04T18:54:56;32.40;69.00
10312;DHT22;5201;48.776;9.128;2022-08-04T18:57:24;32.30;69.70
10312;DHT22;5201;48.776;9.128;2022-08-04T18:59:50;32.20;69.60
10312;DHT22;5201;48.776;9.128;2022-08-04T19:02:16;32.10;69.60
10312;DHT22;5201;48.776;9.128;2022-08-04T19:04:42;32.00;69.60
10312;DHT22;5201;48.776;9.128;2022-08-04T19:07:09;32.00;70.30
10312;DHT22;5201;48.776;9.128;2022-08-04T19:09:38;31.90;70.70
10312;DHT22;5201;48.776;9.128;2022-08-04T19:12:04;31.80;71.40
10312;DHT22;5201;48.776;9.128;2022-08-04T19:14:30;31.70;72.10
10312;DHT22;5201;48.776;9.128;2022-08-04T19:16:55;31.60;72.30
10312;DHT22;5201;48.776;9.128;2022-08-04T19:19:21;31.60;72.60
10312;DHT22;5201;48.776;9.128;2022-08-04T19:21:46;31.50;73.00
10312;DHT22;5201;48.776;9.128;2022-08-04T19:24:12;31.40;73.00
10312;DHT22;5201;48.776;9.128;2022-08-04T19:26:38;31.30;72.80
10312;DHT22;5201;48.776;9.128;2022-08-04T19:29:04;31.20;72.70
10312;DHT22;5201;48.776;9.128;2022-08-04T19:31:30;31.20;72.80
10312;DHT22;5201;48.776;9.128;2022-08-04T19:33:56;31.10;73.10
10312;DHT22;5201;48.776;9.128;2022-08-04T19:36:23;31.10;73.30
10312;DHT22;5201;48.776;9.128;2022-08-04T19:38:52;31.00;73.10
10312;DHT22;5201;48.776;9.128;2022-08-04T19:41:18;30.90;73.00
10312;DHT22;5201;48.776;9.128;2022-08-04T19:43:43;30.90;75.40
10312;DHT22;5201;48.776;9.128;2022-08-04T19:46:11;30.90;76.60
10312;DHT22;5201;48.776;9.128;2022-08-04T19:48:36;30.80;76.80
10312;DHT22;5201;48.776;9.128;2022-08-04T19:51:02;30.70;76.30
10312;DHT22;5201;48.776;9.128;2022-08-04T19:53:28;30.70;75.70
10312;DHT22;5201;48.776;9.128;2022-08-04T19:55:53;30.70;74.40
10312;DHT22;5201;48.776;9.128;2022-08-04T19:58:19;30.50;74.20
10312;DHT22;5201;48.776;9.128;2022-08-04T20:00:45;30.50;75.20
10312;DHT22;5201;48.776;9.128;2022-08-04T20:03:10;30.40;76.00
10312;DHT22;5201;48.776;9.128;2022-08-04T20:05:42;30.20;74.80
10312;DHT22;5201;48.776;9.128;2022-08-04T20:08:07;30.10;76.70
10312;DHT22;5201;48.776;9.128;2022-08-04T20:10:33;30.10;75.50
10312;DHT22;5201;48.776;9.128;2022-08-04T20:12:59;30.10;74.30
10312;DHT22;5201;48.776;9.128;2022-08-04T20:15:25;30.10;74.90
10312;DHT22;5201;48.776;9.128;2022-08-04T20:17:50;30.10;74.90
10312;DHT22;5201;48.776;9.128;2022-08-04T20:20:16;30.10;75.70
10312;DHT22;5201;48.776;9.128;2022-08-04T20:22:41;30.10;75.70
10312;DHT22;5201;48.776;9.128;2022-08-04T20:25:07;30.10;74.80